Time;durP1;ratioP1;P1;durP2;ratioP2;P2;SDS_P1;SDS_P2;PMS_P1;PMS_P2;Temp;Humidity;BMP_temperature;BMP_pressure;BME280_temperature;BME280_humidity;BME280_pressure;Samples;Min_cycle;Max_cycle;Signal;HPM_P1;HPM_P2
2023/11/13 00:00:44;;;;;;;3.20;1.27;;;;;;;7.65;98.80;100445.28;5035351;28;20457;-69
2023/11/13 00:03:11;;;;;;;2.60;1.10;;;;;;;7.67;98.80;100445.81;5035255;28;20449;-69
2023/11/13 00:05:38;;;;;;;2.07;0.73;;;;;;;7.68;98.36;100450.09;5034955;28;20443;-69
2023/11/13 00:08:05;;;;;;;2.30;0.77;;;;;;;7.72;98.34;100450.34;5035481;28;20522;-69
2023/11/13 00:10:32;;;;;;;2.20;0.90;;;;;;;7.74;98.18;100459.72;5035108;28;20504;-69
2023/11/13 00:12:59;;;;;;;3.33;1.00;;;;;;;7.75;97.80;100458.66;5035341;28;20450;-69
2023/11/13 00:15:26;;;;;;;2.57;1.07;;;;;;;7.72;97.42;100453.84;5034666;28;20454;-69
2023/11/13 00:17:54;;;;;;;2.83;1.10;;;;;;;7.72;97.19;100455.72;5034887;28;20479;-69
2023/11/13 00:20:21;;;;;;;2.77;1.10;;;;;;;7.74;97.19;100453.53;5034811;28;20447;-69
2023/11/13 00:22:48;;;;;;;3.23;1.30;;;;;;;7.70;97.14;100456.03;5034552;28;20957;-69
2023/11/13 00:25:14;;;;;;;2.70;1.10;;;;;;;7.72;96.57;100469.22;5034647;28;20459;-69
2023/11/13 00:27:41;;;;;;;3.00;1.20;;;;;;;7.70;96.36;100465.97;5034765;28;20867;-68
2023/11/13 00:30:10;;;;;;;2.50;0.93;;;;;;;7.71;96.52;100471.09;5034378;28;20490;-68
2023/11/13 00:32:36;;;;;;;2.70;1.00;;;;;;;7.71;96.12;100468.41;5034692;28;20467;-68
2023/11/13 00:35:05;;;;;;;3.70;1.27;;;;;;;7.72;96.34;100471.91;5034569;28;20887;-68
2023/11/13 00:37:33;;;;;;;3.20;1.63;;;;;;;7.71;96.62;100473.00;5034581;28;20439;-68
2023/11/13 00:40:00;;;;;;;2.40;0.70;;;;;;;7.74;95.59;100470.53;5034500;28;20993;-67
2023/11/13 00:42:26;;;;;;;2.20;0.80;;;;;;;7.76;95.80;100464.84;5034567;28;20534;-67
2023/11/13 00:44:53;;;;;;;2.70;0.97;;;;;;;7.79;95.99;100466.97;5034443;28;20494;-67
2023/11/13 00:47:20;;;;;;;2.30;0.90;;;;;;;7.77;96.21;100464.56;5034382;28;20478;-67
2023/11/13 00:49:46;;;;;;;2.57;0.87;;;;;;;7.81;95.59;100467.50;5034688;28;20526;-67
2023/11/13 00:52:14;;;;;;;2.50;1.07;;;;;;;7.77;96.33;100467.25;5034649;28;20446;-67
2023/11/13 00:54:41;;;;;;;3.17;1.37;;;;;;;7.76;97.82;100464.84;5034166;28;20548;-67
2023/11/13 00:57:08;;;;;;;2.50;0.90;;;;;;;7.74;98.22;100459.72;5033773;28;20475;-67
2023/11/13 00:59:34;;;;;;;1.97;0.57;;;;;;;7.76;97.19;100454.88;5033704;28;21056;-67
2023/11/13 01:02:02;;;;;;;2.60;0.87;;;;;;;7.75;96.77;100461.38;5060688;22;20682;-68
2023/11/13 01:04:30;;;;;;;3.10;1.17;;;;;;;7.80;96.49;100464.00;5053556;28;20462;-68
2023/11/13 01:06:57;;;;;;;2.30;0.80;;;;;;;7.80;96.62;100464.00;5054074;28;20450;-68
2023/11/13 01:09:25;;;;;;;2.30;0.80;;;;;;;7.85;96.16;100455.06;5054242;28;20474;-68
2023/11/13 01:11:52;;;;;;;2.30;0.80;;;;;;;7.86;97.16;100455.84;5053949;28;20460;-68
2023/11/13 01:14:19;;;;;;;2.70;0.90;;;;;;;7.89;96.88;100447.22;5053779;28;20561;-68
2023/11/13 01:16:46;;;;;;;2.53;0.77;;;;;;;7.88;96.17;100448.28;5053764;28;20446;-68
2023/11/13 01:19:13;;;;;;;2.37;0.90;;;;;;;7.84;96.29;100443.47;5053726;28;20512;-68
2023/11/13 01:21:39;;;;;;;3.20;0.80;;;;;;;7.83;96.83;100441.88;5053812;28;20450;-68
2023/11/13 01:24:06;;;;;;;2.73;1.07;;;;;;;7.84;97.20;100439.97;5053609;28;20450;-68
2023/11/13 01:26:34;;;;;;;3.40;1.33;;;;;;;7.88;97.48;100442.88;5053324;28;20961;-68
2023/11/13 01:29:01;;;;;;;2.40;0.90;;;;;;;7.82;97.51;100437.53;5053703;28;20910;-68
2023/11/13 01:31:28;;;;;;;5.20;1.77;;;;;;;7.83;97.21;100438.34;5053946;28;20460;-69
2023/11/13 01:33:54;;;;;;;2.10;0.70;;;;;;;7.81;96.62;100440.53;5053790;28;20508;-69
2023/11/13 01:36:21;;;;;;;2.20;0.77;;;;;;;7.74;96.25;100448.94;5052804;28;20525;-68
2023/11/13 01:38:48;;;;;;;2.60;1.10;;;;;;;7.73;96.27;100447.34;5053560;28;20478;-68
2023/11/13 01:41:14;;;;;;;2.00;0.60;;;;;;;7.71;96.56;100449.53;5053196;28;20954;-68
2023/11/13 01:43:42;;;;;;;2.30;0.77;;;;;;;7.72;96.52;100444.94;5053186;28;20985;-68
2023/11/13 01:46:10;;;;;;;2.70;1.00;;;;;;;7.69;96.20;100440.91;5053661;28;20473;-69
2023/11/13 01:48:37;;;;;;;2.47;0.77;;;;;;;7.62;96.36;100436.97;5053486;28;20458;-68
2023/11/13 01:51:04;;;;;;;2.57;0.90;;;;;;;7.58;96.50;100434.03;5054170;28;20444;-68
2023/11/13 01:53:32;;;;;;;2.30;0.90;;;;;;;7.59;96.69;100436.44;5053442;28;21064;-69
2023/11/13 01:55:59;;;;;;;2.97;1.27;;;;;;;7.56;97.08;100430.81;5053216;28;20453;-68
2023/11/13 01:58:26;;;;;;;3.90;0.70;;;;;;;7.52;97.08;100427.88;5053446;28;20496;-69
2023/11/13 02:00:55;;;;;;;4.07;1.30;;;;;;;7.50;97.00;100421.19;5053299;28;20469;-69
2023/11/13 02:03:21;;;;;;;3.43;1.00;;;;;;;7.42;97.15;100436.06;5053403;28;20458;-69
2023/11/13 02:05:49;;;;;;;2.30;0.87;;;;;;;7.34;97.41;100440.16;5053492;28;20434;-69
2023/11/13 02:08:15;;;;;;;2.40;1.00;;;;;;;7.38;97.06;100434.22;5053569;28;20509;-68
2023/11/13 02:10:42;;;;;;;2.43;1.13;;;;;;;7.33;97.33;100426.97;5053185;28;20470;-68
2023/11/13 02:13:11;;;;;;;2.87;0.57;;;;;;;7.34;97.34;100424.00;5052834;28;20957;-68
2023/11/13 02:15:38;;;;;;;2.23;0.87;;;;;;;7.32;97.09;100415.41;5053712;28;20779;-68
2023/11/13 02:18:06;;;;;;;2.23;0.93;;;;;;;7.29;97.13;100420.56;5053071;28;20454;-68
2023/11/13 02:20:34;;;;;;;2.10;0.80;;;;;;;7.22;97.45;100426.28;5053187;28;20513;-68
2023/11/13 02:23:01;;;;;;;1.83;0.37;;;;;;;7.17;97.92;100420.94;5053123;28;20486;-68
2023/11/13 02:25:31;;;;;;;2.20;0.90;;;;;;;7.17;99.05;100425.50;5052774;28;20918;-68
2023/11/13 02:27:58;;;;;;;2.43;0.97;;;;;;;7.18;99.52;100441.41;5052833;28;20517;-68
2023/11/13 02:30:25;;;;;;;2.27;0.70;;;;;;;7.18;100.00;100448.69;5053337;28;20525;-68
2023/11/13 02:32:52;;;;;;;2.20;0.67;;;;;;;7.20;100.00;100444.59;5053227;28;20442;-68
2023/11/13 02:35:19;;;;;;;3.10;0.73;;;;;;;7.25;100.00;100446.44;5052512;28;20490;-68
2023/11/13 02:37:45;;;;;;;1.90;0.50;;;;;;;7.29;100.00;100452.88;5053103;28;20438;-68
2023/11/13 02:40:13;;;;;;;2.30;0.73;;;;;;;7.32;100.00;100453.13;5052822;28;20577;-68
2023/11/13 02:42:41;;;;;;;2.33;0.70;;;;;;;7.38;99.67;100453.06;5052721;28;21021;-68
2023/11/13 02:45:10;;;;;;;2.90;0.90;;;;;;;7.40;99.54;100459.00;5053229;28;20493;-68
2023/11/13 02:47:36;;;;;;;2.30;0.80;;;;;;;7.43;98.92;100458.41;5054136;28;20478;-68
2023/11/13 02:50:05;;;;;;;4.97;1.03;;;;;;;7.44;98.48;100447.38;5056835;28;20438;-65
2023/11/13 02:52:32;;;;;;;4.67;0.90;;;;;;;7.45;98.80;100440.91;5056507;28;20474;-68
2023/11/13 02:54:58;;;;;;;2.93;0.80;;;;;;;7.48;99.11;100444.91;5056625;28;20469;-68
2023/11/13 02:57:25;;;;;;;2.30;0.73;;;;;;;7.47;98.97;100433.31;5056289;28;20829;-69
2023/11/13 02:59:53;;;;;;;2.10;0.73;;;;;;;7.47;99.00;100424.44;5056896;28;20561;-69
2023/11/13 03:02:20;;;;;;;1.93;0.47;;;;;;;7.44;99.03;100422.31;5056198;28;20542;-69
2023/11/13 03:04:46;;;;;;;2.77;0.93;;;;;;;7.43;99.11;100428.78;5056515;28;20541;-68
2023/11/13 03:07:13;;;;;;;2.20;0.80;;;;;;;7.39;98.26;100425.03;5056434;28;20536;-68
2023/11/13 03:09:40;;;;;;;2.00;0.50;;;;;;;7.26;97.60;100427.31;5056235;28;20525;-68
2023/11/13 03:12:07;;;;;;;2.70;0.90;;;;;;;7.23;97.02;100427.09;5056599;28;20484;-68
2023/11/13 03:14:34;;;;;;;2.00;0.60;;;;;;;7.22;97.03;100437.06;5056273;28;20470;-69
2023/11/13 03:17:02;;;;;;;2.67;0.80;;;;;;;7.24;96.81;100431.38;5056223;28;20464;-69
2023/11/13 03:19:28;;;;;;;2.70;0.70;;;;;;;7.16;96.97;100429.28;5056466;28;20620;-69
2023/11/13 03:21:55;;;;;;;2.60;0.93;;;;;;;7.12;97.06;100434.41;5055982;28;20525;-69
2023/11/13 03:24:22;;;;;;;2.30;0.80;;;;;;;7.10;97.09;100442.00;5055706;28;20549;-69
2023/11/13 03:26:48;;;;;;;2.03;0.57;;;;;;;7.08;96.89;100423.44;5056353;28;20529;-69
2023/11/13 03:29:15;;;;;;;2.10;0.73;;;;;;;7.12;97.21;100431.72;5055710;28;20500;-69
2023/11/13 03:31:41;;;;;;;2.70;1.03;;;;;;;7.18;97.25;100437.91;5056207;28;20517;-68
2023/11/13 03:34:09;;;;;;;2.20;0.73;;;;;;;7.18;97.17;100438.69;5055471;28;20969;-68
2023/11/13 03:36:36;;;;;;;2.53;0.97;;;;;;;7.19;96.59;100443.00;5055893;28;20529;-68
2023/11/13 03:39:03;;;;;;;2.83;0.80;;;;;;;7.21;96.63;100451.59;5055591;28;20514;-68
2023/11/13 03:41:32;;;;;;;2.60;0.70;;;;;;;7.20;97.03;100438.41;5055746;28;20438;-68
2023/11/13 03:44:00;;;;;;;2.77;1.10;;;;;;;7.16;96.44;100438.16;5055546;28;20842;-68
2023/11/13 03:46:27;;;;;;;2.00;0.60;;;;;;;7.15;96.69;100436.56;5055337;28;20446;-68
2023/11/13 03:48:54;;;;;;;2.40;0.87;;;;;;;7.17;97.13;100437.09;5056084;28;20441;-68
2023/11/13 03:51:23;;;;;;;2.40;0.90;;;;;;;7.15;97.91;100428.47;5055868;28;20446;-68
2023/11/13 03:53:49;;;;;;;2.90;0.90;;;;;;;7.11;98.29;100430.13;5056087;28;20494;-69
2023/11/13 03:56:17;;;;;;;2.20;0.83;;;;;;;7.08;98.43;100423.44;5056250;28;20442;-68
2023/11/13 03:58:44;;;;;;;2.50;1.00;;;;;;;7.03;98.64;100428.03;5054678;28;20822;-68
2023/11/13 04:01:10;;;;;;;2.80;0.87;;;;;;;6.95;99.28;100425.94;5055087;28;20549;-68
2023/11/13 04:03:37;;;;;;;1.90;0.47;;;;;;;6.89;99.47;100437.84;5055759;28;20541;-68
2023/11/13 04:06:04;;;;;;;3.13;0.60;;;;;;;6.86;99.51;100441.88;5055474;28;20820;-68
2023/11/13 04:08:32;;;;;;;2.40;1.00;;;;;;;6.83;99.67;100431.69;5055273;28;20438;-68
2023/11/13 04:10:59;;;;;;;2.60;0.50;;;;;;;6.80;100.00;100445.69;5055417;28;20571;-68
2023/11/13 04:13:26;;;;;;;2.63;1.03;;;;;;;6.76;100.00;100439.25;5055564;28;20833;-68
2023/11/13 04:15:53;;;;;;;2.40;0.60;;;;;;;6.75;100.00;100443.03;5055282;28;20813;-68
2023/11/13 04:18:20;;;;;;;2.40;0.90;;;;;;;6.66;100.00;100442.81;5055018;28;20839;-68
2023/11/13 04:20:46;;;;;;;2.20;0.63;;;;;;;6.66;100.00;100440.13;5054965;28;20565;-68
2023/11/13 04:23:13;;;;;;;2.00;0.40;;;;;;;6.54;99.99;100437.78;5055042;28;20442;-68
2023/11/13 04:25:46;;;;;;;2.60;0.87;;;;;;;6.46;100.00;100435.69;5055117;28;20442;-68
2023/11/13 04:28:13;;;;;;;2.20;0.67;;;;;;;6.45;100.00;100438.63;5055340;28;20444;-68
2023/11/13 04:30:41;;;;;;;2.17;0.80;;;;;;;6.44;100.00;100443.22;5054782;28;20492;-68
2023/11/13 04:33:07;;;;;;;2.27;0.67;;;;;;;6.48;100.00;100432.72;5054771;28;20438;-68
2023/11/13 04:35:34;;;;;;;4.03;0.93;;;;;;;6.46;100.00;100434.84;5054958;28;20461;-68
2023/11/13 04:38:01;;;;;;;4.13;0.90;;;;;;;6.54;100.00;100443.16;5054928;28;20438;-68
2023/11/13 04:40:27;;;;;;;2.57;0.83;;;;;;;6.55;100.00;100447.47;5054543;28;21024;-68
2023/11/13 04:42:58;;;;;;;2.00;0.63;;;;;;;6.58;100.00;100446.09;5054284;28;20478;-68
2023/11/13 04:45:24;;;;;;;2.30;0.90;;;;;;;6.65;99.95;100449.31;5054751;28;20525;-68
2023/11/13 04:47:51;;;;;;;2.40;0.70;;;;;;;6.65;100.00;100449.31;5054850;28;20442;-68
2023/11/13 04:50:18;;;;;;;2.00;0.50;;;;;;;6.61;99.37;100452.81;5054955;28;20517;-68
2023/11/13 04:52:44;;;;;;;2.90;0.83;;;;;;;6.61;99.53;100444.75;5054489;28;20446;-68
2023/11/13 04:55:12;;;;;;;2.00;0.57;;;;;;;6.60;99.32;100451.19;5054745;28;20470;-68
2023/11/13 04:57:39;;;;;;;2.30;0.70;;;;;;;6.62;99.33;100449.84;5054618;28;20442;-68
2023/11/13 05:00:11;;;;;;;2.07;0.57;;;;;;;6.53;99.51;100452.31;5054413;28;20493;-67
2023/11/13 05:02:38;;;;;;;5.30;1.63;;;;;;;6.55;99.60;100449.34;5054212;28;20484;-67
2023/11/13 05:05:07;;;;;;;2.17;0.77;;;;;;;6.61;100.00;100456.31;5053985;28;20548;-68
2023/11/13 05:07:33;;;;;;;2.17;0.60;;;;;;;6.66;100.00;100461.66;5054669;28;20533;-68
2023/11/13 05:10:00;;;;;;;2.77;0.70;;;;;;;6.59;100.00;100466.53;5054172;28;20930;-68
2023/11/13 05:12:27;;;;;;;2.50;0.90;;;;;;;6.64;100.00;100463.84;5054461;28;20443;-68
2023/11/13 05:14:53;;;;;;;3.53;1.10;;;;;;;6.64;100.00;100463.84;5054407;28;20459;-68
2023/11/13 05:17:21;;;;;;;2.20;0.50;;;;;;;6.64;100.00;100469.22;5054149;28;20542;-68
2023/11/13 05:19:48;;;;;;;2.97;1.13;;;;;;;6.67;100.00;100468.66;5054446;28;20518;-67
2023/11/13 05:22:14;;;;;;;3.20;0.67;;;;;;;6.71;100.00;100474.28;5054046;28;20502;-67
2023/11/13 05:24:41;;;;;;;2.20;0.70;;;;;;;6.70;100.00;100486.94;5053990;28;20458;-67
2023/11/13 05:27:08;;;;;;;2.10;0.90;;;;;;;6.71;100.00;100474.28;5054200;28;20870;-67
2023/11/13 05:29:34;;;;;;;2.47;0.87;;;;;;;6.67;100.00;100470.53;5054381;28;20469;-67
2023/11/13 05:32:01;;;;;;;2.20;0.70;;;;;;;6.70;100.00;100461.91;5053992;28;20960;-68
2023/11/13 05:34:29;;;;;;;3.07;0.80;;;;;;;6.71;100.00;100463.53;5053641;28;20542;-68
2023/11/13 05:36:56;;;;;;;3.67;1.40;;;;;;;6.73;100.00;100451.41;5053468;28;20549;-68
2023/11/13 05:39:22;;;;;;;3.10;0.80;;;;;;;6.67;100.00;100455.19;5053583;28;20536;-68
2023/11/13 05:41:49;;;;;;;2.40;0.90;;;;;;;6.58;100.00;100449.59;5053504;28;20443;-68
2023/11/13 05:44:16;;;;;;;2.70;0.60;;;;;;;6.54;100.00;100453.91;5053018;28;20486;-68
2023/11/13 05:46:42;;;;;;;2.50;0.83;;;;;;;6.46;100.00;100453.69;5053069;28;20446;-68
2023/11/13 05:49:10;;;;;;;2.00;0.60;;;;;;;6.41;100.00;100448.34;5052854;28;20446;-68
2023/11/13 05:51:38;;;;;;;2.30;0.73;;;;;;;6.40;100.00;100454.81;5053127;28;20438;-68
2023/11/13 05:54:05;;;;;;;3.23;1.20;;;;;;;6.40;100.00;100449.44;5053246;28;20541;-68
2023/11/13 05:56:32;;;;;;;2.47;0.83;;;;;;;6.37;100.00;100453.47;5053122;28;20442;-67
2023/11/13 05:58:59;;;;;;;2.03;0.60;;;;;;;6.35;100.00;100452.13;5053399;28;20521;-67
2023/11/13 06:01:31;;;;;;;2.97;1.10;;;;;;;6.34;100.00;100453.22;5052610;28;20799;-67
2023/11/13 06:03:57;;;;;;;2.50;0.90;;;;;;;6.25;100.00;100466.44;5052641;28;20553;-67
2023/11/13 06:06:25;;;;;;;2.60;0.83;;;;;;;6.18;100.00;100461.34;5053602;28;20470;-68
2023/11/13 06:08:53;;;;;;;2.10;0.43;;;;;;;6.27;100.00;100475.03;5053001;28;20533;-66
2023/11/13 06:11:20;;;;;;;2.33;0.70;;;;;;;6.23;100.00;100471.28;5052915;28;20825;-68
2023/11/13 06:13:46;;;;;;;2.40;1.00;;;;;;;6.25;100.00;100471.81;5053162;28;20988;-68
2023/11/13 06:16:13;;;;;;;4.23;0.70;;;;;;;6.29;100.00;100480.94;5052982;28;20887;-68
2023/11/13 06:18:46;;;;;;;3.20;1.00;;;;;;;6.25;100.00;100493.34;5053323;28;20479;-68
2023/11/13 06:21:12;;;;;;;2.63;0.77;;;;;;;6.19;100.00;100489.84;5053063;28;20466;-68
2023/11/13 06:23:41;;;;;;;2.30;0.70;;;;;;;6.19;100.00;100484.47;5055739;28;20888;-68
2023/11/13 06:26:12;;;;;;;3.77;0.83;;;;;;;6.18;100.00;100484.75;5057314;28;20444;-68
2023/11/13 06:28:40;;;;;;;2.33;0.70;;;;;;;6.19;100.00;100495.22;5057097;28;20906;-68
2023/11/13 06:31:08;;;;;;;2.30;0.93;;;;;;;6.26;100.00;100492.25;5056989;28;20442;-68
2023/11/13 06:33:36;;;;;;;4.23;1.20;;;;;;;6.21;100.00;100486.91;5057070;28;20524;-67
2023/11/13 06:36:04;;;;;;;2.77;0.70;;;;;;;6.24;100.00;100480.94;5057034;28;20469;-68
2023/11/13 06:38:31;;;;;;;2.10;0.50;;;;;;;6.21;100.00;100478.81;5056984;28;20525;-67
2023/11/13 06:40:59;;;;;;;2.93;0.70;;;;;;;6.20;100.00;100466.47;5056761;28;20477;-67
2023/11/13 06:43:27;;;;;;;2.20;0.70;;;;;;;6.21;100.00;100471.56;5056448;28;20982;-68
2023/11/13 06:45:54;;;;;;;2.70;1.10;;;;;;;6.23;100.00;100474.75;5056975;28;20441;-68
2023/11/13 06:48:20;;;;;;;2.10;0.63;;;;;;;6.25;100.00;100477.19;5056895;28;20484;-67
2023/11/13 06:50:48;;;;;;;2.27;0.73;;;;;;;6.27;100.00;100481.22;5056675;28;20480;-68
2023/11/13 06:53:14;;;;;;;2.27;0.77;;;;;;;6.31;100.00;100482.28;5057137;28;20462;-68
2023/11/13 06:55:41;;;;;;;2.47;0.77;;;;;;;6.45;100.00;100471.72;5056483;28;20442;-68
2023/11/13 06:58:08;;;;;;;2.97;1.03;;;;;;;6.50;100.00;100479.75;5057137;28;20450;-69
2023/11/13 07:03:04;;;;;;;3.43;1.30;;;;;;;6.60;100.00;100462.78;5054305;28;20490;-65
2023/11/13 07:05:31;;;;;;;2.87;1.10;;;;;;;6.67;100.00;100455.19;5056313;28;20855;-65
2023/11/13 07:07:58;;;;;;;2.17;0.60;;;;;;;6.72;100.00;100459.75;5056278;28;20445;-64
2023/11/13 07:10:26;;;;;;;2.60;1.00;;;;;;;6.77;100.00;100460.53;5056272;28;20434;-64
2023/11/13 07:12:53;;;;;;;3.77;1.30;;;;;;;6.82;100.00;100457.00;5056198;28;20446;-64
2023/11/13 07:15:20;;;;;;;1.97;0.60;;;;;;;6.87;100.00;100454.28;5056788;28;20508;-64
2023/11/13 07:17:47;;;;;;;3.20;0.93;;;;;;;6.95;100.00;100459.06;5056005;28;20456;-64
2023/11/13 07:20:18;;;;;;;2.87;1.40;;;;;;;6.98;100.00;100461.19;5056228;28;20577;-64
2023/11/13 07:22:45;;;;;;;3.27;1.20;;;;;;;7.03;100.00;100453.06;5056264;28;20469;-64
2023/11/13 07:25:11;;;;;;;2.07;0.60;;;;;;;7.12;100.00;100458.66;5055839;28;20512;-64
2023/11/13 07:27:38;;;;;;;2.40;0.73;;;;;;;7.17;100.00;100455.97;5056273;28;20436;-64
2023/11/13 07:30:07;;;;;;;2.80;0.70;;;;;;;7.20;98.82;100452.69;5055874;28;20430;-64
2023/11/13 07:32:33;;;;;;;2.63;1.07;;;;;;;7.24;98.00;100455.63;5055675;28;20442;-64
2023/11/13 07:35:00;;;;;;;2.90;0.83;;;;;;;7.24;97.34;100451.03;5054441;28;20516;-64
2023/11/13 07:37:28;;;;;;;2.93;1.43;;;;;;;7.31;96.66;100451.53;5055477;28;20631;-64
2023/11/13 07:39:55;;;;;;;2.20;0.80;;;;;;;7.31;95.20;100448.84;5055985;28;20481;-64
2023/11/13 07:42:22;;;;;;;2.60;0.90;;;;;;;7.30;94.62;100449.94;5056036;28;20438;-64
2023/11/13 07:44:49;;;;;;;2.07;0.70;;;;;;;7.29;94.44;100442.91;5055715;28;20524;-64
2023/11/13 07:47:16;;;;;;;2.00;0.50;;;;;;;7.34;94.45;100459.03;5055594;28;20438;-64
2023/11/13 07:49:43;;;;;;;3.40;0.77;;;;;;;7.32;94.69;100460.41;5055609;28;20985;-64
2023/11/13 07:52:10;;;;;;;3.00;1.30;;;;;;;7.33;94.72;100453.94;5055585;28;20438;-64
2023/11/13 07:54:38;;;;;;;2.20;0.80;;;;;;;7.36;94.96;100455.25;5055977;28;20830;-65
2023/11/13 07:57:05;;;;;;;4.13;1.40;;;;;;;7.38;93.95;100461.97;5055646;28;20445;-64
2023/11/13 07:59:31;;;;;;;3.50;1.03;;;;;;;7.36;92.50;100458.75;5055431;28;20481;-65
2023/11/13 08:01:58;;;;;;;2.63;1.43;;;;;;;7.36;91.85;100442.59;5055283;28;20997;-65
2023/11/13 08:04:25;;;;;;;2.87;1.07;;;;;;;7.35;91.32;100443.69;5056007;28;20557;-66
2023/11/13 08:06:51;;;;;;;2.40;0.97;;;;;;;7.27;92.26;100437.00;5055776;28;20442;-66
2023/11/13 08:09:20;;;;;;;2.50;1.00;;;;;;;7.26;92.64;100435.41;5055932;28;20442;-66
2023/11/13 08:11:48;;;;;;;2.67;1.23;;;;;;;7.20;93.04;100438.41;5055258;28;20442;-66
2023/11/13 08:14:14;;;;;;;2.83;0.90;;;;;;;7.18;93.12;100435.22;5055481;28;20886;-65
2023/11/13 08:16:41;;;;;;;3.03;1.40;;;;;;;7.20;93.21;100438.41;5055627;28;20434;-65
2023/11/13 08:19:09;;;;;;;3.97;1.00;;;;;;;7.19;93.23;100429.53;5055541;28;20442;-65
2023/11/13 08:21:36;;;;;;;2.40;0.83;;;;;;;7.20;93.16;100439.22;5055799;28;20482;-65
2023/11/13 08:24:04;;;;;;;2.67;0.60;;;;;;;7.26;92.19;100438.09;5055251;28;20490;-65
2023/11/13 08:26:32;;;;;;;2.20;0.60;;;;;;;7.24;92.96;100439.47;5055178;28;20449;-65
2023/11/13 08:29:00;;;;;;;2.67;0.90;;;;;;;7.32;93.44;100445.03;5055091;28;20504;-65
2023/11/13 08:31:27;;;;;;;3.10;1.30;;;;;;;7.41;92.51;100447.13;5055501;28;20527;-64
2023/11/13 08:33:54;;;;;;;3.03;1.50;;;;;;;7.43;92.44;100443.06;5055256;28;20521;-64
2023/11/13 08:36:26;;;;;;;2.60;0.80;;;;;;;7.47;90.38;100449.47;5055212;28;20473;-64
2023/11/13 08:38:53;;;;;;;2.37;0.90;;;;;;;7.48;89.78;100461.06;5055018;28;20538;-66
2023/11/13 08:41:20;;;;;;;2.20;0.80;;;;;;;7.48;89.96;100461.06;5055177;28;21048;-66
2023/11/13 08:43:48;;;;;;;2.60;0.70;;;;;;;7.47;90.63;100456.75;5054837;28;20973;-65
2023/11/13 08:46:16;;;;;;;2.27;0.83;;;;;;;7.50;91.10;100454.31;5054853;28;20488;-67
2023/11/13 08:48:42;;;;;;;2.27;0.80;;;;;;;7.47;92.47;100446.78;5055342;28;20442;-67
2023/11/13 08:51:09;;;;;;;3.30;1.30;;;;;;;7.50;92.87;100440.84;5054760;28;20974;-67
2023/11/13 08:53:38;;;;;;;2.30;0.93;;;;;;;7.62;92.89;100445.06;5054739;28;20516;-67
2023/11/13 08:56:07;;;;;;;2.10;0.60;;;;;;;7.69;92.53;100440.13;5054782;28;20446;-67
2023/11/13 08:58:34;;;;;;;2.90;1.30;;;;;;;7.79;92.78;100429.22;5054867;28;20447;-67
2023/11/13 09:01:00;;;;;;;2.40;1.00;;;;;;;7.97;92.14;100424.97;5054739;28;20831;-67
2023/11/13 09:03:29;;;;;;;2.83;0.90;;;;;;;8.11;91.06;100420.53;5054929;28;20489;-68
2023/11/13 09:05:55;;;;;;;3.37;1.37;;;;;;;8.21;90.23;100420.38;5054855;28;20438;-67
2023/11/13 09:08:23;;;;;;;4.43;1.40;;;;;;;8.37;90.12;100418.34;5055274;28;20438;-68
2023/11/13 09:10:50;;;;;;;2.37;0.83;;;;;;;8.50;89.98;100424.88;5055460;28;20465;-66
2023/11/13 09:13:16;;;;;;;3.80;1.20;;;;;;;8.63;89.94;100421.47;5054838;28;20458;-67
2023/11/13 09:15:44;;;;;;;2.83;0.83;;;;;;;8.87;89.58;100426.00;5055086;28;20521;-67
2023/11/13 09:18:10;;;;;;;2.20;0.80;;;;;;;8.99;88.51;100423.66;5054974;28;20446;-66
2023/11/13 09:20:41;;;;;;;2.50;0.90;;;;;;;9.02;86.01;100423.06;5054720;28;20474;-66
2023/11/13 09:23:09;;;;;;;3.20;1.10;;;;;;;9.03;84.30;100430.88;5054963;28;20425;-69
2023/11/13 09:25:35;;;;;;;2.67;1.00;;;;;;;9.10;84.08;100422.38;5054983;28;20922;-66
2023/11/13 09:28:03;;;;;;;3.03;1.20;;;;;;;9.22;83.47;100421.94;5054119;28;20854;-66
2023/11/13 09:30:30;;;;;;;4.97;1.87;;;;;;;9.26;80.96;100434.56;5054350;28;20434;-65
2023/11/13 09:32:57;;;;;;;2.77;1.03;;;;;;;9.34;80.51;100431.19;5055075;28;20442;-65
2023/11/13 09:35:24;;;;;;;4.07;1.10;;;;;;;9.41;78.35;100424.56;5054350;28;20931;-65
2023/11/13 09:37:55;;;;;;;3.33;1.10;;;;;;;9.44;74.83;100421.28;5054180;28;20938;-65
2023/11/13 09:40:24;;;;;;;2.80;1.13;;;;;;;9.51;75.09;100405.47;5053741;28;20446;-65
2023/11/13 09:42:52;;;;;;;5.20;1.03;;;;;;;9.50;71.89;100407.38;5054040;28;20439;-65
2023/11/13 09:45:20;;;;;;;3.13;0.97;;;;;;;9.44;73.65;100416.69;5053580;28;20465;-65
2023/11/13 09:47:49;;;;;;;3.03;1.20;;;;;;;9.49;74.91;100421.19;5053897;28;20525;-65
2023/11/13 09:50:16;;;;;;;4.10;1.37;;;;;;;9.58;74.78;100419.41;5053698;28;20443;-65
2023/11/13 09:52:46;;;;;;;3.17;0.83;;;;;;;9.62;73.23;100411.50;5054159;28;20462;-65
2023/11/13 09:55:18;;;;;;;2.90;0.93;;;;;;;9.68;74.23;100408.38;5053957;28;20498;-66
2023/11/13 09:57:46;;;;;;;4.17;1.87;;;;;;;9.69;74.70;100396.47;5055530;28;20549;-66
2023/11/13 10:00:17;;;;;;;2.57;1.03;;;;;;;9.70;74.31;100408.91;5058424;28;20541;-67
2023/11/13 10:02:46;;;;;;;2.20;0.67;;;;;;;9.67;72.73;100404.09;5057555;28;20823;-65
2023/11/13 10:05:13;;;;;;;3.23;1.10;;;;;;;9.62;74.45;100401.47;5057484;28;20465;-65
2023/11/13 10:07:44;;;;;;;2.70;0.80;;;;;;;9.61;75.18;100397.19;5057889;28;20504;-65
2023/11/13 10:10:17;;;;;;;3.03;1.40;;;;;;;9.63;75.48;100405.00;5058036;28;20462;-65
2023/11/13 10:12:46;;;;;;;4.40;1.37;;;;;;;9.64;74.67;100393.88;5057339;28;20917;-69
2023/11/13 10:15:12;;;;;;;2.53;0.93;;;;;;;9.71;75.43;100394.28;5057423;28;20466;-68
2023/11/13 10:17:43;;;;;;;3.03;1.63;;;;;;;9.79;75.29;100388.19;5057356;28;20441;-68
2023/11/13 10:20:10;;;;;;;4.20;1.40;;;;;;;9.83;71.93;100386.47;5057321;28;20442;-68
2023/11/13 10:22:38;;;;;;;3.70;1.00;;;;;;;9.75;69.70;100392.59;5057720;28;20478;-68
2023/11/13 10:25:11;;;;;;;2.30;0.97;;;;;;;9.67;70.76;100370.84;5058373;28;20458;-68
2023/11/13 10:27:39;;;;;;;4.67;1.13;;;;;;;9.64;69.48;100372.22;5057214;28;20484;-68
2023/11/13 10:30:09;;;;;;;1.97;0.50;;;;;;;9.60;68.91;100357.69;5057435;28;20446;-67
2023/11/13 10:32:36;;;;;;;2.47;0.97;;;;;;;9.58;71.60;100352.59;5057331;28;20434;-67
2023/11/13 10:35:08;;;;;;;2.30;0.73;;;;;;;9.62;71.35;100349.31;5056759;28;20466;-68
2023/11/13 10:37:36;;;;;;;3.13;1.33;;;;;;;9.61;73.53;100351.22;5057488;28;20499;-64
2023/11/13 10:40:07;;;;;;;2.40;0.97;;;;;;;9.72;71.94;100347.19;5056868;28;20452;-67
2023/11/13 10:42:33;;;;;;;2.30;0.97;;;;;;;9.77;72.63;100333.56;5057135;28;20474;-68
2023/11/13 10:45:01;;;;;;;3.13;0.90;;;;;;;9.81;71.41;100339.97;5056960;28;20458;-67
2023/11/13 10:47:32;;;;;;;7.07;2.07;;;;;;;9.91;73.54;100321.94;5057241;28;20442;-67
2023/11/13 10:50:01;;;;;;;3.00;1.20;;;;;;;9.93;70.30;100323.25;5056665;28;20422;-67
2023/11/13 10:52:28;;;;;;;2.57;1.03;;;;;;;9.91;70.16;100316.50;5056849;28;20470;-67
2023/11/13 10:54:58;;;;;;;3.07;1.27;;;;;;;9.86;71.61;100312.00;5056242;28;20961;-67
2023/11/13 10:57:26;;;;;;;2.63;1.10;;;;;;;9.97;73.46;100312.63;5056446;28;20442;-67
2023/11/13 10:59:53;;;;;;;3.83;1.73;;;;;;;10.21;74.90;100305.03;5056731;28;20446;-67
2023/11/13 11:02:26;;;;;;;2.90;1.20;;;;;;;10.52;70.72;100310.56;5056295;28;20493;-67
2023/11/13 11:04:57;;;;;;;2.63;0.93;;;;;;;10.79;72.65;100300.72;5056687;28;20466;-67
2023/11/13 11:07:26;;;;;;;2.10;0.70;;;;;;;10.83;68.34;100293.56;5057552;28;20440;-67
2023/11/13 11:09:56;;;;;;;2.73;1.10;;;;;;;10.80;70.92;100297.72;5055889;28;20434;-67
2023/11/13 11:12:27;;;;;;;2.60;1.00;;;;;;;10.89;68.06;100288.81;5056446;28;20418;-67
2023/11/13 11:15:09;;;;;;;4.03;1.40;;;;;;;10.76;66.74;100285.09;5055789;28;20462;-67
2023/11/13 11:17:46;;;;;;;2.20;0.90;;;;;;;10.78;69.97;100282.88;5057046;28;20472;-67
2023/11/13 11:20:31;;;;;;;2.80;1.20;;;;;;;11.45;68.91;100288.13;5056040;28;20458;-68
2023/11/13 11:23:00;;;;;;;2.47;1.10;;;;;;;11.93;63.92;100289.22;5056135;28;20474;-67
2023/11/13 11:25:44;;;;;;;3.27;1.17;;;;;;;12.48;62.40;100294.84;5056558;28;20445;-68
2023/11/13 11:28:44;;;;;;;3.17;1.20;;;;;;;13.55;57.92;100304.03;5056181;28;20541;-68
2023/11/13 11:31:45;;;;;;;3.13;1.20;;;;;;;14.25;55.81;100296.19;5054963;28;20450;-68
2023/11/13 11:34:22;;;;;;;4.13;1.20;;;;;;;14.99;54.08;100291.84;5056010;28;20568;-68
2023/11/13 11:36:53;;;;;;;2.93;1.13;;;;;;;16.14;52.65;100289.69;5056237;28;20465;-68